Mansfield, WA

7:51 PM PDT on October 24, 2014 (GMT -0700)
Grant County International | Change Station
CLOSE
Current Station
Airport
Location: Moses Lake,
Elevation: 1184 ft
Nearby Weather Stations

Elev 1184 ft 47.21 °N, 119.32 °W | Updated 59 minutes ago

Rain
Rain
52 °F
Feels Like 52 °F
N
4
Wind Variable Wind from North

Today
High -- | Low -- °F
--% Chance of Precip.
Yesterday
High -- | Low -- °F
Precip. -- in
7:31 AM 5:53 PM
New Moon, 2% visible
Pressure 30.14 in
Visibility 9.0 miles
Clouds Overcast 6000 ft
Dew Point 48 °F
Humidity 86%
Rainfall 0.01 in
Snow Depth Not available.
UV 0 out of 12
Pollen 1.40 out of 12
Air Quality Not available.
Flu Activity Sporadic
METAR KMWH 250152Z 36003KT 9SM -RA OVC060 11/09 A2998 RMK AO2 RAB06 SLP205 P0001 T01110089

More Conditions Fewer Conditions

Pressure 30.14 in
Visibility 9.0 miles
Clouds Overcast 6000 ft
Dew Point 48 °F
Humidity 86%
Rainfall 0.01 in
Snow Depth Not available.
UV 0 out of 12
Pollen 1.40 out of 12
Air Quality Not available.
Flu Activity Sporadic
METAR KMWH 250152Z 36003KT 9SM -RA OVC060 11/09 A2998 RMK AO2 RAB06 SLP205 P0001 T01110089

More Conditions Fewer Conditions

10-Day Weather Forecast

Almanac

Astronomy

Oct. 24, 2014 Rise Set
Actual Time 7:31 AM PDT 5:53 PM PDT
Civil Twilight 6:59 AM PDT 6:25 PM PDT
Nautical Twilight 6:23 AM PDT 7:01 PM PDT
Astronomical Twilight 5:47 AM PDT 7:37 PM PDT
Moon 8:17 AM PDT (10/24) 6:33 PM PDT (10/24)
Length of Visible Light 11h 26m
Length of Day
10h 22m
Tomorrow will be 3m 14s shorter.
New Moon, 2% of the Moon is Illuminated
Today
New Moon
Oct 30
First Quarter
Nov 6
Full
Nov 14
Last Quarter
Nov 22
New

Today's Extremes

State Highs State Lows

Community

WunderPhotos

Upload Photos

1,764,760 photos uploaded!

Nearby

Snow Depth

Station Depth Elevation
Pope Ridge 0 in 3540 ft
Moses Mountain 0 in 5300 ft
Trough 0 in 5300 ft
Grouse Camp 0 in 5380 ft
Blewett Pass 0 in 4270 ft

Earthquake Activity

City Distance Mag. Time & Date
No recent earthquake activity has been reported nearby.
Minimum magnitude displayed is 2.5.

Coastal Water Temperatures

Place Temperature
No Stations Reporting

Nearby Weather Stations